< < Back
Terminal Aerodrome Forecast


Current Version              Previous Versions:   1  2  3  4  5  6  7  8  9  

Terminal Aerodrome Forecast

221
FTUS42 KJAX 302300
TAFSSI
TAF
KSSI 302320Z 0100/0124 03005KT P6SM SCT250
     FM011400 05008KT P6SM SCT030
     FM011900 08010KT P6SM SCT250=



Latest METAR

129
SAUS70 KWBC 012000 RRL
MTRSSI
METAR KSSI 011953Z AUTO 07009KT 10SM OVC070 26/21 A2997 RMK AO2 SLP148
T02560206


USA.gov is the U.S. government's official web portal to all federal, state and local government web resources and services.